Flight Track Log - Related Links

Times and Time Zones

All times are in EDT time to prevent confusion due to time zone crossing. See the MAS2266 flight status page for this flight to view local times or setup timezone preferences in your user account.

Time Position Orientation Groundspeed Altitude Reporting Facility
EDT Latitude Longitude Course Direction KTS MPH feet Rate Location/Type
Thu 10:33:15 PM 1.4900 110.3590 135° Southeast  Level FlightAware ADS-B
Thu 10:33:41 PM 1.4880 110.3560 236° Southwest 86 99 656 Level FlightAware ADS-B
Thu 10:33:59 PM 1.4850 110.3470 252° West 145 167 1,105 Level FlightAware ADS-B
Thu 10:34:19 PM 1.4790 110.3320 248° West 168 193 700 2,211 Climbing FlightAware ADS-B
Thu 10:34:37 PM 1.4740 110.3190 249° West 170 196 1,400 2,182 Climbing FlightAware ADS-B
Thu 10:34:41 PM 1.4740 110.3150 270° West 175 201 1,500 1,655 Climbing FlightAware ADS-B
Thu 10:35:06 PM 1.4870 110.2990 309° West 191 220 2,200 1,818 Climbing FlightAware ADS-B
Thu 10:35:14 PM 1.4940 110.2970 344° North 195 224 2,500 1,714 Climbing FlightAware ADS-B
Thu 10:35:34 PM 1.5120 110.3040 21° North 209 241 3,000 1,200 Climbing FlightAware ADS-B
Thu 10:35:54 PM 1.5300 110.3140 29° Northeast 236 272 3,300 1,050 Climbing FlightAware ADS-B
Thu 10:36:14 PM 1.5500 110.3250 29° Northeast 263 303 3,700 1,200 Climbing FlightAware ADS-B
Thu 10:36:29 PM 1.5660 110.3360 34° Northeast 284 327 4,000 1,667 Climbing FlightAware ADS-B
Thu 10:36:50 PM 1.5890 110.3540 38° Northeast 296 341 4,700 2,100 Climbing FlightAware ADS-B
Thu 10:37:09 PM 1.6090 110.3710 40° Northeast 307 353 5,400 2,372 Climbing FlightAware ADS-B
Thu 10:37:33 PM 1.6350 110.3920 39° Northeast 310 357 6,400 2,933 Climbing FlightAware ADS-B
Thu 10:37:54 PM 1.6590 110.4120 40° Northeast 309 356 7,600 3,300 Climbing FlightAware ADS-B
Thu 10:38:13 PM 1.6780 110.4300 43° Northeast 305 351 8,600 2,923 Climbing FlightAware ADS-B
Thu 10:38:33 PM 1.7000 110.4490 41° Northeast 311 358 9,500 1,833 Climbing FlightAware ADS-B
Thu 10:38:49 PM 1.7180 110.4650 42° Northeast 332 382 9,700 1,787 Climbing FlightAware ADS-B
Thu 10:39:20 PM 1.7540 110.4970 42° Northeast 348 400 10,900 2,341 Climbing FlightAware ADS-B
Thu 10:39:30 PM 1.7640 110.5100 52° Northeast 351 404 11,300 2,125 Climbing FlightAware ADS-B
Thu 10:40:08 PM 1.7880 110.5700 68° East 373 429 12,600 2,435 Climbing FlightAware ADS-B
Thu 10:40:39 PM 1.8050 110.6200 71° East 377 434 14,100 2,206 Climbing FlightAware ADS-B
Thu 10:41:16 PM 1.8280 110.6830 70° East 385 443 15,100 1,644 Climbing FlightAware ADS-B
Thu 10:41:52 PM 1.8470 110.7440 73° East 389 448 16,100 1,583 Climbing FlightAware ADS-B
Thu 10:42:28 PM 1.8670 110.8080 73° East 401 461 17,000 818 Climbing FlightAware ADS-B
Thu 10:42:58 PM 1.8830 110.8600 73° East 402 463 17,000  Level FlightAware ADS-B
Thu 10:43:36 PM 1.9040 110.9270 73° East 401 461 17,000  Level FlightAware ADS-B
Thu 10:44:12 PM 1.9320 110.9890 66° East 400 460 17,000  Level FlightAware ADS-B
Thu 10:44:44 PM 1.9570 111.0420 65° Northeast 399 459 17,000 -882 Level FlightAware ADS-B
Thu 10:45:20 PM 1.9860 111.1020 64° Northeast 395 455 16,000 -1,068 Descending FlightAware ADS-B
Thu 10:45:57 PM 2.0110 111.1550 65° Northeast 397 457 15,700 -2,384 Descending FlightAware ADS-B
Thu 10:46:33 PM 2.0410 111.2200 65° Northeast 389 448 13,100 -3,582 Descending FlightAware ADS-B
Thu 10:47:04 PM 2.0660 111.2720 64° Northeast 391 450 11,700 -2,294 Descending FlightAware ADS-B
Thu 10:47:41 PM 2.0940 111.3310 65° Northeast 381 438 10,500 -1,231 Descending FlightAware ADS-B
Thu 10:48:22 PM 2.1200 111.3860 65° Northeast 376 433 10,100 -312 Descending FlightAware ADS-B
Thu 10:48:58 PM 2.1440 111.4330 63° Northeast 376 433 10,100  Level FlightAware ADS-B
Thu 10:49:35 PM 2.1680 111.4830 64° Northeast 376 433 10,100  Level FlightAware ADS-B
Thu 10:52:00 PM 2.2088 111.6977 79° East  Level Estimated
Thu 10:53:00 PM 2.2256 111.7865 79° East  Level Estimated
Thu 10:54:00 PM 2.2425 111.8754 79° East  Level Estimated
Thu 10:55:00 PM 2.2593 111.9642 79° East  Level Estimated
Thu 10:56:00 PM 2.2635 111.9862 79° East  Level Estimated
Thu 10:57:00 PM 2.2635 111.9862 217° Southwest  Level Estimated
Thu 10:58:00 PM 2.2635 111.9862 217° Southwest  Level Estimated
Thu 10:59:00 PM 2.2635 111.9862 217° Southwest  Level Estimated
Thu 11:00:00 PM 2.2635 111.9862 217° Southwest  Level Estimated
Thu 11:01:00 PM 2.2635 111.9862 217° Southwest  Level Estimated
Thu 11:02:00 PM 2.2635 111.9862 217° Southwest  Level Estimated
Thu 11:03:00 PM 2.2635 111.9862 217° Southwest  Level Estimated
Thu 11:04:00 PM 2.2635 111.9862 217° Southwest  Level Estimated
Thu 11:05:00 PM 2.2635 111.9862 217° Southwest  Level Estimated
Thu 11:06:00 PM 2.2635 111.9862 217° Southwest  Level Estimated
Thu 11:07:00 PM 2.2635 111.9862 217° Southwest  Level Estimated
Thu 11:08:00 PM 2.2635 111.9862 217° Southwest  Level Estimated
Thu 11:09:00 PM 2.2635 111.9862 217° Southwest  Level Estimated
Thu 11:10:00 PM 2.2635 111.9862 217° Southwest  Level Estimated

Login

Don't have an account? Register now (free) for customized features, flight alerts, and more!